Time;durP1;ratioP1;P1;durP2;ratioP2;P2;SDS_P1;SDS_P2;PMS_P1;PMS_P2;Temp;Humidity;BMP_temperature;BMP_pressure;BME280_temperature;BME280_humidity;BME280_pressure;Samples;Min_cycle;Max_cycle;Signal;HPM_P1;HPM_P2
2022/01/16 00:04:31;;;;;;;;;;;1.40;99.90;;;;;;5045859;28;20441;-75
2022/01/16 00:07:03;;;;;;;35.55;5.78;;;1.30;99.90;;;;;;5066696;28;20027;-75
2022/01/16 00:09:31;;;;;;;33.70;5.55;;;1.30;99.90;;;;;;5072537;28;20088;-75
2022/01/16 00:12:00;;;;;;;30.88;6.20;;;1.20;99.90;;;;;;5065311;28;20048;-75
2022/01/16 00:14:29;;;;;;;44.92;5.43;;;1.20;99.90;;;;;;5068584;28;20084;-75
2022/01/16 00:16:56;;;;;;;41.38;5.88;;;1.10;99.90;;;;;;5065524;28;20118;-75
2022/01/16 00:19:23;;;;;;;34.63;6.30;;;1.10;99.90;;;;;;5065475;28;20056;-75
2022/01/16 00:21:50;;;;;;;40.15;5.30;;;1.00;99.90;;;;;;5065856;28;20091;-75
2022/01/16 00:24:17;;;;;;;27.48;5.25;;;1.00;99.90;;;;;;5065236;28;20048;-75
2022/01/16 00:26:44;;;;;;;32.92;6.30;;;0.90;99.90;;;;;;5064977;28;20052;-75
2022/01/16 00:29:12;;;;;;;37.78;6.10;;;0.90;99.90;;;;;;5065156;28;20091;-75
2022/01/16 00:31:40;;;;;;;43.13;5.82;;;0.90;99.90;;;;;;5064738;28;20045;-75
2022/01/16 00:34:10;;;;;;;30.77;5.15;;;0.90;99.90;;;;;;5065160;28;20048;-75
2022/01/16 00:36:36;;;;;;;19.88;5.45;;;0.90;99.90;;;;;;5064418;28;20056;-75
2022/01/16 00:39:04;;;;;;;27.95;5.93;;;1.00;99.90;;;;;;5071779;28;20091;-75
2022/01/16 00:41:32;;;;;;;46.53;6.63;;;1.00;99.90;;;;;;5064760;28;20133;-75
2022/01/16 00:43:59;;;;;;;37.60;5.70;;;1.00;99.90;;;;;;5063920;28;20385;-75
2022/01/16 00:46:25;;;;;;;40.25;7.43;;;1.00;99.90;;;;;;5064083;28;20211;-75
2022/01/16 00:48:52;;;;;;;23.08;4.78;;;1.00;99.90;;;;;;5065187;28;20222;-75
2022/01/16 00:51:20;;;;;;;30.80;5.13;;;1.00;99.90;;;;;;5062992;28;20129;-75
2022/01/16 00:53:47;;;;;;;28.38;5.82;;;1.00;99.90;;;;;;5064878;28;20044;-75
2022/01/16 00:56:13;;;;;;;26.38;5.10;;;1.00;99.90;;;;;;5065203;28;20148;-75
2022/01/16 00:58:40;;;;;;;31.38;6.38;;;0.90;99.90;;;;;;5065005;28;20127;-75
2022/01/16 01:01:08;;;;;;;18.02;4.70;;;1.00;99.90;;;;;;5066578;28;20052;-76
2022/01/16 01:03:35;;;;;;;37.22;5.65;;;1.00;99.90;;;;;;5070485;28;20052;-75
2022/01/16 01:06:03;;;;;;;31.65;5.65;;;1.00;99.90;;;;;;5078745;28;20056;-75
2022/01/16 01:08:30;;;;;;;37.17;5.15;;;1.10;99.90;;;;;;5069987;28;20075;-75
2022/01/16 01:10:59;;;;;;;43.50;5.80;;;1.10;99.90;;;;;;5067686;28;20048;-75
2022/01/16 01:16:02;;;;;;;36.15;6.00;;;1.20;99.90;;;;;;5071552;28;20485;-75
2022/01/16 01:18:31;;;;;;;39.93;5.33;;;1.20;99.90;;;;;;5067452;28;20080;-75
2022/01/16 01:21:02;;;;;;;36.80;6.13;;;1.10;99.90;;;;;;5068852;28;20084;-75
2022/01/16 01:23:29;;;;;;;35.45;5.35;;;1.20;99.90;;;;;;5069243;28;20151;-75
2022/01/16 01:25:56;;;;;;;28.83;5.55;;;1.20;99.90;;;;;;5072232;28;20145;-75
2022/01/16 01:28:22;;;;;;;26.88;5.65;;;1.20;99.90;;;;;;5068688;28;20704;-75
2022/01/16 01:30:49;;;;;;;27.13;5.50;;;1.20;99.90;;;;;;5067162;28;20045;-75
2022/01/16 01:33:19;;;;;;;42.88;6.20;;;1.30;99.90;;;;;;5068392;28;20049;-75
2022/01/16 01:35:46;;;;;;;39.38;6.13;;;1.30;99.90;;;;;;5067473;28;20446;-75
2022/01/16 01:38:17;;;;;;;32.15;5.97;;;1.30;99.90;;;;;;5068499;28;20165;-75
2022/01/16 01:40:47;;;;;;;41.33;6.35;;;1.40;99.90;;;;;;5068191;28;20488;-75
2022/01/16 01:51:22;;;;;;;32.00;7.53;;;1.50;99.90;;;;;;5068241;28;20072;-75
2022/01/16 01:53:51;;;;;;;31.50;6.80;;;1.60;99.90;;;;;;5067999;28;20045;-76
2022/01/16 01:56:21;;;;;;;37.55;7.28;;;1.60;99.90;;;;;;5065688;28;20131;-76
2022/01/16 01:58:48;;;;;;;30.88;6.53;;;1.60;99.90;;;;;;5068463;28;20145;-76
2022/01/16 02:01:15;;;;;;;58.78;9.38;;;1.60;99.90;;;;;;5068069;28;20555;-75
2022/01/16 02:03:43;;;;;;;40.42;9.80;;;1.70;99.90;;;;;;5067423;28;20757;-76
2022/01/16 02:06:15;;;;;;;47.83;7.47;;;1.70;99.90;;;;;;5068110;28;20048;-75
2022/01/16 02:08:43;;;;;;;38.65;7.55;;;1.70;99.90;;;;;;5070923;28;20045;-76
2022/01/16 02:11:12;;;;;;;32.58;8.52;;;1.80;99.90;;;;;;5067694;28;20084;-76
2022/01/16 02:14:25;;;;;;;37.92;8.18;;;1.80;99.90;;;;;;5068395;28;20127;-75
2022/01/16 02:28:36;;;;;;;38.08;9.18;;;1.90;99.90;;;;;;5067879;28;20102;-76
2022/01/16 02:31:19;;;;;;;31.25;9.05;;;1.80;99.90;;;;;;5067276;28;20055;-76
2022/01/16 02:36:46;;;;;;;51.65;9.52;;;1.70;99.90;;;;;;5062452;28;20080;-76
2022/01/16 02:39:14;;;;;;;;;;;1.80;99.90;;;;;;5068099;28;20060;-75
2022/01/16 02:41:43;;;;;;;48.20;9.48;;;1.80;99.90;;;;;;5067286;28;20007;-76
2022/01/16 02:44:19;;;;;;;41.80;10.05;;;1.80;99.90;;;;;;5067269;28;20096;-76
2022/01/16 02:46:46;;;;;;;40.15;8.77;;;1.70;99.90;;;;;;5066076;28;20508;-75
2022/01/16 02:49:24;;;;;;;47.60;10.82;;;1.70;99.90;;;;;;5066827;28;20137;-75
2022/01/16 02:51:54;;;;;;;41.45;11.48;;;1.70;99.90;;;;;;5066844;28;20392;-76
2022/01/16 02:54:22;;;;;;;40.13;9.60;;;1.70;99.90;;;;;;5067056;28;20161;-76
2022/01/16 02:56:49;;;;;;;32.20;9.90;;;1.70;99.90;;;;;;5065566;28;20045;-76
2022/01/16 02:59:17;;;;;;;42.60;10.77;;;1.70;99.90;;;;;;5067024;28;20508;-76
2022/01/16 03:01:45;;;;;;;51.33;11.05;;;1.70;99.90;;;;;;5067248;28;20048;-76
2022/01/16 03:04:12;;;;;;;49.40;12.05;;;1.70;99.90;;;;;;5065594;28;20060;-76
2022/01/16 03:06:39;;;;;;;48.10;9.65;;;1.70;99.90;;;;;;5068111;28;20041;-76
2022/01/16 03:09:07;;;;;;;37.60;9.68;;;1.70;99.90;;;;;;5066901;28;20151;-76
2022/01/16 03:11:37;;;;;;;37.90;9.73;;;1.70;99.90;;;;;;5066642;28;20123;-76
2022/01/16 03:14:08;;;;;;;53.70;12.38;;;1.70;99.90;;;;;;5099509;28;20131;-76
2022/01/16 03:16:35;;;;;;;48.58;12.43;;;1.70;99.90;;;;;;5065533;28;20147;-76
2022/01/16 03:21:54;;;;;;;47.03;12.43;;;1.90;99.90;;;;;;5066197;28;20083;-76
2022/01/16 03:24:26;;;;;;;52.92;11.38;;;1.90;99.90;;;;;;5065326;28;20452;-76
2022/01/16 03:26:56;;;;;;;42.95;12.80;;;1.90;99.90;;;;;;5072956;28;20457;-76
2022/01/16 03:29:27;;;;;;;64.20;14.48;;;1.90;99.90;;;;;;5065987;28;20541;-76
2022/01/16 03:31:54;;;;;;;56.30;13.07;;;2.00;99.90;;;;;;5098438;28;20704;-76
2022/01/16 03:34:21;;;;;;;56.10;14.45;;;2.00;99.90;;;;;;5098838;28;20613;-76
2022/01/16 03:36:48;;;;;;;46.40;12.50;;;1.90;99.90;;;;;;5064806;28;20409;-76
2022/01/16 03:39:15;;;;;;;51.55;14.68;;;1.90;99.90;;;;;;5082841;28;20052;-76
2022/01/16 03:41:42;;;;;;;46.97;13.20;;;1.90;99.90;;;;;;5066090;28;20187;-76
2022/01/16 03:44:09;;;;;;;57.17;13.60;;;1.90;99.90;;;;;;5073395;28;20127;-76
2022/01/16 03:46:39;;;;;;;46.58;14.73;;;1.90;99.90;;;;;;5066066;28;20202;-76
2022/01/16 03:49:10;;;;;;;37.83;12.82;;;1.90;99.90;;;;;;5064750;28;20142;-76
2022/01/16 03:51:38;;;;;;;54.97;14.52;;;1.90;99.90;;;;;;5065463;28;20083;-76
2022/01/16 03:54:06;;;;;;;53.80;16.80;;;1.90;99.90;;;;;;5097223;28;20772;-76
2022/01/16 03:56:34;;;;;;;57.40;15.13;;;2.00;99.90;;;;;;5064475;28;20189;-76
2022/01/16 03:59:00;;;;;;;41.55;15.45;;;2.00;99.90;;;;;;5065796;28;20167;-76
2022/01/16 04:01:27;;;;;;;58.15;17.05;;;2.00;99.90;;;;;;5065036;28;20471;-76
2022/01/16 04:03:55;;;;;;;65.13;17.10;;;2.10;99.90;;;;;;5065557;28;20781;-75
2022/01/16 04:06:22;;;;;;;51.92;16.10;;;2.10;99.90;;;;;;5064771;28;20128;-76
2022/01/16 04:08:51;;;;;;;60.97;17.00;;;2.10;99.90;;;;;;5080644;28;20134;-76
2022/01/16 04:11:18;;;;;;;55.28;17.05;;;2.10;99.90;;;;;;5080410;28;20131;-76
2022/01/16 04:13:53;;;;;;;57.22;16.98;;;2.10;99.90;;;;;;5066156;28;20049;-76
2022/01/16 04:16:22;;;;;;;51.88;17.50;;;2.10;99.90;;;;;;5066226;28;20091;-76
2022/01/16 04:18:51;;;;;;;69.60;17.80;;;2.10;99.90;;;;;;5047967;28;20157;-76
2022/01/16 04:21:21;;;;;;;52.85;17.05;;;2.10;99.90;;;;;;5065345;28;20129;-76
2022/01/16 04:23:48;;;;;;;45.97;16.55;;;2.00;99.90;;;;;;5068487;28;20131;-76
2022/01/16 04:26:16;;;;;;;57.72;16.08;;;2.10;99.90;;;;;;5065529;28;20845;-76
2022/01/16 04:28:46;;;;;;;52.45;16.80;;;2.00;99.90;;;;;;5064338;28;20140;-76
2022/01/16 04:31:14;;;;;;;56.50;16.92;;;2.00;99.90;;;;;;5065171;28;20044;-76
2022/01/16 04:33:41;;;;;;;50.50;17.25;;;2.00;99.90;;;;;;5062293;28;20135;-76
2022/01/16 04:36:09;;;;;;;65.28;16.83;;;2.00;99.90;;;;;;5070234;28;20171;-76
2022/01/16 04:38:38;;;;;;;50.22;15.48;;;1.90;99.90;;;;;;5074945;28;20138;-76
2022/01/16 04:43:52;;;;;;;52.50;17.20;;;2.00;99.90;;;;;;5075099;28;20139;-76
2022/01/16 04:46:25;;;;;;;50.15;17.90;;;1.90;99.90;;;;;;5077813;28;20048;-76
2022/01/16 04:48:53;;;;;;;44.95;16.88;;;1.90;99.90;;;;;;5064713;28;20363;-76
2022/01/16 04:51:21;;;;;;;55.47;16.58;;;1.80;99.90;;;;;;5063855;28;20128;-76
2022/01/16 04:53:48;;;;;;;54.97;15.73;;;1.80;99.90;;;;;;5068554;28;20403;-76
2022/01/16 04:56:15;;;;;;;57.08;18.63;;;1.90;99.90;;;;;;5072523;28;20076;-76
2022/01/16 04:58:43;;;;;;;57.97;19.13;;;1.80;99.90;;;;;;5048424;28;20440;-76
2022/01/16 05:01:10;;;;;;;51.80;19.17;;;1.90;99.90;;;;;;5062354;28;20418;-76
2022/01/16 05:03:39;;;;;;;59.38;17.65;;;2.00;99.90;;;;;;5065456;28;20370;-76
2022/01/16 05:06:06;;;;;;;60.20;17.85;;;2.00;99.90;;;;;;5068577;28;20486;-76
2022/01/16 05:08:33;;;;;;;58.45;17.85;;;2.00;99.90;;;;;;5076525;28;20078;-76
2022/01/16 05:11:00;;;;;;;56.47;17.38;;;2.00;99.90;;;;;;5069792;28;20055;-76
2022/01/16 05:16:35;;;;;;;63.85;18.63;;;2.00;99.90;;;;;;5055649;28;20055;-76
2022/01/16 05:19:08;;;;;;;59.25;17.58;;;2.00;99.90;;;;;;5058104;28;20053;-76
2022/01/16 05:21:36;;;;;;;57.33;18.40;;;2.00;99.90;;;;;;5067490;28;20117;-76
2022/01/16 05:24:08;;;;;;;58.20;17.13;;;2.00;99.90;;;;;;5071162;28;20048;-76
2022/01/16 05:26:36;;;;;;;48.70;16.52;;;2.00;99.90;;;;;;5061299;28;20146;-76
2022/01/16 05:29:03;;;;;;;60.75;19.38;;;1.90;99.90;;;;;;5065338;28;20075;-76
2022/01/16 05:31:30;;;;;;;64.82;18.65;;;1.90;99.90;;;;;;5073375;28;20048;-76
2022/01/16 05:33:58;;;;;;;57.28;18.40;;;1.90;99.90;;;;;;5066018;28;20711;-76
2022/01/16 05:36:25;;;;;;;74.75;20.13;;;1.80;99.90;;;;;;5064352;28;20502;-76
2022/01/16 05:38:53;;;;;;;53.38;17.27;;;1.80;99.90;;;;;;5079694;28;20051;-76
2022/01/16 05:41:20;;;;;;;50.65;16.95;;;1.80;99.90;;;;;;5083145;28;20059;-76
2022/01/16 05:43:48;;;;;;;51.63;18.25;;;1.70;99.90;;;;;;5078844;28;20127;-76
2022/01/16 05:46:15;;;;;;;59.22;18.10;;;1.70;99.90;;;;;;5064808;28;20113;-76
2022/01/16 05:48:42;;;;;;;58.30;18.58;;;1.70;99.90;;;;;;5068026;28;20048;-76
2022/01/16 05:51:09;;;;;;;62.92;18.70;;;1.70;99.90;;;;;;5067853;28;20126;-76
2022/01/16 05:53:37;;;;;;;67.15;19.75;;;1.70;99.90;;;;;;5071267;28;20129;-76
2022/01/16 05:56:05;;;;;;;58.25;19.45;;;1.70;99.90;;;;;;5077399;28;20080;-76
2022/01/16 05:58:31;;;;;;;57.83;19.50;;;1.70;99.90;;;;;;5068881;28;20049;-76
2022/01/16 06:00:58;;;;;;;57.03;20.48;;;1.70;99.90;;;;;;5068027;28;20098;-76
2022/01/16 06:03:25;;;;;;;56.25;19.30;;;1.80;99.90;;;;;;5066826;28;20091;-76
2022/01/16 06:05:52;;;;;;;61.33;20.90;;;1.80;99.90;;;;;;5074314;28;20048;-76
2022/01/16 06:08:19;;;;;;;63.00;20.60;;;1.80;99.90;;;;;;5069255;28;20040;-76
2022/01/16 06:10:46;;;;;;;58.75;20.40;;;1.90;99.90;;;;;;5067989;28;20159;-76
2022/01/16 06:13:14;;;;;;;63.05;20.25;;;1.90;99.90;;;;;;5076423;28;20054;-76
2022/01/16 06:15:41;;;;;;;55.42;20.90;;;1.90;99.90;;;;;;5068571;28;20748;-76
2022/01/16 06:18:09;;;;;;;60.85;21.58;;;2.00;99.90;;;;;;5067919;28;20143;-76
2022/01/16 06:20:35;;;;;;;65.05;21.48;;;2.00;99.90;;;;;;5065597;28;20138;-76
2022/01/16 06:23:02;;;;;;;61.92;21.02;;;2.10;99.90;;;;;;5068264;28;20060;-76
2022/01/16 06:25:29;;;;;;;67.72;21.75;;;2.10;99.90;;;;;;5066646;28;20079;-76
2022/01/16 06:27:56;;;;;;;70.40;21.88;;;2.10;99.90;;;;;;5067900;28;20147;-77
2022/01/16 06:30:23;;;;;;;61.45;21.42;;;2.10;99.90;;;;;;5100300;27;20135;-76
2022/01/16 06:32:50;;;;;;;58.10;20.33;;;2.20;99.90;;;;;;5067035;28;20230;-76
2022/01/16 06:35:17;;;;;;;54.58;19.38;;;2.20;99.90;;;;;;5078362;28;20049;-76
2022/01/16 06:37:44;;;;;;;66.07;21.60;;;2.30;99.90;;;;;;5072014;28;20084;-76
2022/01/16 06:40:12;;;;;;;68.28;22.25;;;2.30;99.90;;;;;;5072793;28;20744;-76
2022/01/16 06:42:39;;;;;;;64.65;20.65;;;2.40;99.90;;;;;;5066540;28;20404;-76
2022/01/16 06:45:08;;;;;;;57.20;21.60;;;2.50;99.90;;;;;;5067277;28;20055;-76
2022/01/16 06:47:35;;;;;;;65.53;21.63;;;2.60;99.90;;;;;;5067907;28;20748;-76
2022/01/16 06:50:02;;;;;;;57.80;21.38;;;2.70;99.90;;;;;;5100225;28;20159;-76
2022/01/16 06:52:29;;;;;;;64.35;21.38;;;2.70;99.90;;;;;;5067628;28;20123;-77
2022/01/16 06:54:59;;;;;;;57.55;21.48;;;2.70;99.90;;;;;;5072793;28;20128;-77
2022/01/16 06:57:26;;;;;;;59.65;20.80;;;2.70;99.90;;;;;;5066256;28;20123;-77
2022/01/16 06:59:53;;;;;;;63.13;21.30;;;2.70;99.90;;;;;;5068541;28;20052;-78
2022/01/16 07:02:19;;;;;;;64.00;21.13;;;2.80;99.90;;;;;;5068530;28;20052;-78
2022/01/16 07:04:46;;;;;;;62.28;22.50;;;2.80;99.90;;;;;;5070990;28;20378;-78
2022/01/16 07:07:14;;;;;;;70.18;22.80;;;2.80;99.90;;;;;;5070348;28;20044;-78
2022/01/16 07:09:44;;;;;;;66.03;23.15;;;2.80;99.90;;;;;;5071475;28;20048;-78
2022/01/16 07:12:11;;;;;;;64.47;21.55;;;2.90;99.90;;;;;;5068292;28;20140;-78
2022/01/16 07:14:38;;;;;;;69.97;22.73;;;2.80;99.90;;;;;;5077752;28;20054;-78
2022/01/16 07:17:05;;;;;;;72.22;21.63;;;2.90;99.90;;;;;;5068725;28;20132;-78
2022/01/16 07:19:32;;;;;;;65.53;21.35;;;2.90;99.90;;;;;;5066850;28;20058;-79
2022/01/16 07:21:59;;;;;;;74.15;20.95;;;2.90;99.90;;;;;;5071369;28;20072;-79
2022/01/16 07:24:27;;;;;;;72.43;22.77;;;2.90;99.90;;;;;;5069923;28;20088;-78
2022/01/16 07:27:00;;;;;;;66.72;21.80;;;2.80;99.90;;;;;;5075483;28;20044;-79
2022/01/16 07:29:30;;;;;;;60.20;19.75;;;2.80;99.90;;;;;;5054111;28;20707;-79
2022/01/16 07:31:57;;;;;;;67.82;21.42;;;2.80;99.90;;;;;;5067872;28;20056;-80
2022/01/16 07:34:24;;;;;;;62.47;20.05;;;2.90;99.90;;;;;;5068349;28;20044;-78
2022/01/16 07:36:50;;;;;;;59.60;20.33;;;2.90;99.90;;;;;;5068053;28;20094;-78
2022/01/16 07:39:18;;;;;;;73.63;19.67;;;2.90;99.90;;;;;;5069594;28;20055;-79
2022/01/16 07:41:45;;;;;;;62.22;20.85;;;2.90;99.90;;;;;;5067430;28;20080;-78
2022/01/16 07:44:12;;;;;;;71.00;19.83;;;2.90;99.90;;;;;;5065728;28;20394;-78
2022/01/16 07:46:38;;;;;;;73.88;21.42;;;2.90;99.90;;;;;;5060479;28;20053;-78
2022/01/16 07:49:06;;;;;;;72.20;20.10;;;2.80;99.90;;;;;;5054081;28;20845;-79
2022/01/16 07:51:35;;;;;;;76.90;21.13;;;2.80;99.90;;;;;;5054533;28;20806;-83
2022/01/16 07:54:03;;;;;;;73.28;20.67;;;2.90;99.90;;;;;;5067388;28;20124;-82
2022/01/16 07:56:30;;;;;;;69.90;19.02;;;2.90;99.90;;;;;;5058608;28;20623;-82
2022/01/16 07:58:57;;;;;;;76.78;20.05;;;2.90;99.90;;;;;;5058309;28;20084;-82
2022/01/16 08:01:26;;;;;;;71.03;19.90;;;2.90;99.90;;;;;;5077601;28;20050;-82
2022/01/16 08:03:53;;;;;;;70.18;19.58;;;2.90;99.90;;;;;;5067528;28;20397;-82
2022/01/16 08:06:20;;;;;;;71.93;20.23;;;3.00;99.90;;;;;;5064027;28;20071;-82
2022/01/16 08:08:54;;;;;;;71.35;19.02;;;3.00;99.90;;;;;;5061201;28;20123;-81
2022/01/16 08:11:20;;;;;;;71.32;19.45;;;3.00;99.90;;;;;;5068883;28;20088;-82
2022/01/16 08:13:47;;;;;;;73.65;20.08;;;3.10;99.90;;;;;;5067987;28;20125;-82
2022/01/16 08:16:14;;;;;;;71.75;18.38;;;3.00;99.90;;;;;;5057192;28;20052;-82
2022/01/16 08:18:41;;;;;;;70.97;20.33;;;3.00;99.90;;;;;;5069395;28;20063;-82
2022/01/16 08:21:08;;;;;;;68.65;18.55;;;3.00;99.90;;;;;;5066415;28;20087;-82
2022/01/16 08:23:35;;;;;;;68.30;19.90;;;3.10;99.90;;;;;;5071787;28;20615;-82
2022/01/16 08:26:03;;;;;;;69.40;20.05;;;3.10;99.90;;;;;;5075955;28;20052;-82
2022/01/16 08:28:30;;;;;;;75.57;20.65;;;3.10;99.90;;;;;;5070668;28;20864;-82
2022/01/16 08:30:57;;;;;;;76.90;20.35;;;3.20;99.90;;;;;;5070825;28;20409;-81
2022/01/16 08:33:24;;;;;;;79.50;21.45;;;3.20;99.90;;;;;;5072666;28;20097;-81
2022/01/16 08:35:51;;;;;;;71.65;19.38;;;3.20;99.90;;;;;;5070241;28;20132;-82
2022/01/16 08:38:26;;;;;;;81.80;22.70;;;3.20;99.90;;;;;;5070913;28;20053;-82
2022/01/16 08:40:57;;;;;;;81.03;22.90;;;3.20;99.90;;;;;;5070398;28;20074;-82
2022/01/16 08:43:24;;;;;;;79.32;22.05;;;3.30;99.90;;;;;;5070423;28;20070;-81
2022/01/16 08:45:53;;;;;;;76.30;21.38;;;3.20;99.90;;;;;;5070911;28;20048;-81
2022/01/16 08:48:21;;;;;;;75.20;20.90;;;3.30;99.90;;;;;;5067761;28;20044;-85
2022/01/16 08:50:47;;;;;;;67.60;17.95;;;3.30;99.90;;;;;;5054543;28;20127;-82
2022/01/16 08:53:14;;;;;;;72.72;21.08;;;3.30;99.90;;;;;;5070420;28;20048;-80
2022/01/16 08:55:41;;;;;;;75.65;20.50;;;3.40;99.90;;;;;;5070351;28;20554;-79
2022/01/16 08:58:12;;;;;;;76.57;20.35;;;3.40;99.90;;;;;;5070531;28;20050;-81
2022/01/16 09:00:43;;;;;;;73.70;20.75;;;3.40;99.90;;;;;;5050428;28;20057;-82
2022/01/16 09:03:10;;;;;;;71.32;20.65;;;3.50;99.90;;;;;;5069283;28;20159;-81
2022/01/16 09:05:37;;;;;;;81.82;21.77;;;3.50;99.90;;;;;;5071940;28;20049;-82
2022/01/16 09:08:04;;;;;;;80.07;20.80;;;3.50;99.90;;;;;;5070826;28;20131;-81
2022/01/16 09:10:31;;;;;;;81.90;22.50;;;3.50;99.90;;;;;;5070612;28;20080;-79
2022/01/16 09:12:58;;;;;;;71.93;21.25;;;3.50;99.90;;;;;;5069929;28;20079;-79
2022/01/16 09:15:25;;;;;;;76.18;21.65;;;3.50;99.90;;;;;;5068928;28;20048;-81
2022/01/16 09:17:52;;;;;;;82.32;23.23;;;3.60;99.90;;;;;;5074555;28;20118;-79
2022/01/16 09:20:19;;;;;;;86.57;23.65;;;3.60;99.90;;;;;;5062830;28;20091;-81
2022/01/16 09:22:48;;;;;;;80.80;22.38;;;3.60;99.90;;;;;;5070371;28;20485;-83
2022/01/16 09:25:22;;;;;;;81.65;22.95;;;3.60;99.90;;;;;;5074262;28;20837;-81
2022/01/16 09:27:50;;;;;;;86.50;24.05;;;3.70;99.90;;;;;;5073427;28;20053;-81
2022/01/16 09:30:25;;;;;;;85.65;24.15;;;3.60;99.90;;;;;;5073500;28;20102;-82
2022/01/16 09:32:52;;;;;;;87.15;23.83;;;3.70;99.90;;;;;;5070186;28;20097;-80
2022/01/16 09:35:20;;;;;;;91.38;24.30;;;3.70;99.90;;;;;;5074167;28;20457;-81
2022/01/16 09:37:47;;;;;;;83.82;24.27;;;3.70;99.90;;;;;;5066560;28;20135;-82
2022/01/16 09:40:16;;;;;;;99.20;25.90;;;3.70;99.90;;;;;;5072959;28;20062;-81
2022/01/16 09:42:44;;;;;;;88.75;24.65;;;3.80;99.90;;;;;;5071861;28;20135;-80
2022/01/16 09:45:13;;;;;;;90.28;25.77;;;3.80;99.90;;;;;;5060115;28;20151;-82
2022/01/16 09:47:44;;;;;;;93.63;26.02;;;3.80;99.90;;;;;;5072061;28;20664;-81
2022/01/16 09:50:13;;;;;;;89.20;25.48;;;3.80;99.90;;;;;;5073043;28;20049;-85
2022/01/16 09:52:42;;;;;;;88.30;26.27;;;3.90;99.90;;;;;;5072250;28;20052;-79
2022/01/16 09:55:09;;;;;;;90.47;25.55;;;3.80;99.90;;;;;;5074226;28;20169;-81
2022/01/16 09:57:37;;;;;;;105.55;27.13;;;3.90;99.90;;;;;;5073367;28;20128;-85
2022/01/16 10:00:08;;;;;;;98.45;28.23;;;3.90;99.90;;;;;;5071969;28;20128;-85
2022/01/16 10:02:35;;;;;;;93.50;24.65;;;3.90;99.90;;;;;;5072995;28;20044;-85
2022/01/16 10:05:19;;;;;;;159.98;30.33;;;4.00;99.90;;;;;;5072996;28;20082;-88
2022/01/16 10:07:47;;;;;;;150.43;32.10;;;4.00;99.90;;;;;;5081987;28;20072;-85
2022/01/16 10:10:14;;;;;;;116.38;29.00;;;4.00;99.90;;;;;;5074655;28;20124;-90
2022/01/16 10:12:48;;;;;;;178.52;34.58;;;4.10;99.90;;;;;;5073379;28;20080;-88
2022/01/16 10:15:26;;;;;;;104.70;28.88;;;4.10;99.90;;;;;;5073901;28;20072;-93
2022/01/16 10:17:59;;;;;;;102.53;28.60;;;4.20;99.90;;;;;;5078824;28;20055;-90
2022/01/16 10:20:28;;;;;;;105.57;30.25;;;4.30;99.90;;;;;;5073922;28;20079;-88
2022/01/16 10:22:57;;;;;;;101.80;28.35;;;4.30;99.90;;;;;;5072185;28;20079;-92
2022/01/16 10:25:41;;;;;;;93.07;27.30;;;4.30;99.90;;;;;;5077454;28;20110;-91
2022/01/16 10:28:20;;;;;;;105.38;27.10;;;4.30;99.90;;;;;;5083541;28;20048;-85
2022/01/16 10:30:56;;;;;;;105.85;28.83;;;4.40;99.90;;;;;;5064324;28;20128;-85
2022/01/16 10:33:25;;;;;;;111.70;28.77;;;;;;;;;;5073191;28;20140;-88
2022/01/16 10:35:54;;;;;;;114.63;28.20;;;;;;;;;;5073572;28;20070;-87
2022/01/16 10:38:23;;;;;;;101.45;29.13;;;;;;;;;;5073444;28;20044;-88
2022/01/16 10:40:51;;;;;;;94.47;27.23;;;;;;;;;;5072631;28;20151;-91
2022/01/16 10:43:21;;;;;;;104.15;28.75;;;;;;;;;;5074054;28;20862;-91
2022/01/16 10:45:59;;;;;;;106.75;27.67;;;;;;;;;;5073452;28;20052;-88
2022/01/16 10:48:46;;;;;;;112.68;28.10;;;;;;;;;;5054510;28;20487;-88
2022/01/16 10:51:20;;;;;;;110.05;26.33;;;;;;;;;;5074279;28;20715;-91
2022/01/16 10:53:49;;;;;;;109.82;28.60;;;;;;;;;;5072820;28;20131;-91
2022/01/16 10:56:26;;;;;;;98.25;27.15;;;;;;;;;;5071706;28;20155;-81
2022/01/16 10:58:56;;;;;;;127.00;28.55;;;;;;;;;;5075874;28;20044;-84
2022/01/16 11:01:23;;;;;;;99.25;26.05;;;;;;;;;;5068578;28;20053;-83
2022/01/16 11:04:01;;;;;;;108.22;26.77;;;;;;;;;;5072120;28;20489;-89
2022/01/16 11:06:32;;;;;;;107.43;30.00;;;;;;;;;;5073498;28;20052;-90
2022/01/16 11:09:08;;;;;;;112.78;27.10;;;;;;;;;;5083496;28;20446;-89
2022/01/16 11:11:35;;;;;;;103.63;28.10;;;;;;;;;;5089670;28;20084;-83
2022/01/16 11:14:06;;;;;;;102.03;26.85;;;;;;;;;;5070105;28;20068;-84
2022/01/16 11:16:34;;;;;;;111.22;27.38;;;;;;;;;;5072531;28;20076;-84
2022/01/16 11:19:02;;;;;;;109.10;26.85;;;;;;;;;;5072676;28;20083;-84
2022/01/16 11:21:31;;;;;;;123.97;27.63;;;;;;;;;;5051509;28;20053;-84
2022/01/16 11:26:27;;;;;;;118.88;27.10;;;;;;;;;;5072530;28;20087;-82
2022/01/16 11:28:56;;;;;;;127.50;29.13;;;;;;;;;;5078043;28;20048;-82
2022/01/16 11:31:24;;;;;;;118.72;30.27;;;;;;;;;;5070946;28;20044;-84
2022/01/16 11:33:51;;;;;;;119.68;30.10;;;;;;;;;;5071298;28;20048;-80
2022/01/16 11:36:20;;;;;;;126.75;31.02;;;;;;;;;;5071560;28;20087;-79
2022/01/16 11:38:49;;;;;;;99.72;26.13;;;;;;;;;;5070272;28;20132;-80
2022/01/16 11:41:31;;;;;;;125.30;30.73;;;;;;;;;;5071485;28;20786;-78
2022/01/16 11:43:59;;;;;;;150.52;33.20;;;;;;;;;;5071534;28;20366;-80
2022/01/16 11:46:31;;;;;;;140.32;32.17;;;;;;;;;;5070044;28;21325;-79
2022/01/16 11:49:02;;;;;;;124.75;33.25;;;;;;;;;;5074604;28;20041;-80
2022/01/16 11:51:40;;;;;;;129.50;33.17;;;;;;;;;;5084277;28;20400;-80
2022/01/16 11:54:36;;;;;;;134.07;29.20;;;;;;;;;;5070561;28;20140;-80
2022/01/16 11:57:05;;;;;;;121.63;30.42;;;;;;;;;;5077982;28;20127;-78
2022/01/16 11:59:41;;;;;;;122.18;28.90;;;;;;;;;;5090809;28;20047;-79
2022/01/16 12:02:08;;;;;;;118.32;29.58;;;;;;;;;;5083187;28;20132;-80
2022/01/16 12:04:38;;;;;;;133.60;32.50;;;;;;;;;;5070341;28;20499;-78
2022/01/16 12:07:11;;;;;;;127.93;31.25;;;;;;;;;;5070977;28;20040;-79
2022/01/16 12:12:12;;;;;;;131.02;30.73;;;;;;;;;;5055678;28;20123;-79
2022/01/16 12:14:52;;;;;;;137.18;31.20;;;;;;;;;;5069495;28;20553;-79
2022/01/16 12:20:15;;;;;;;122.93;32.30;;;;;;;;;;5078860;28;20540;-79
2022/01/16 12:22:44;;;;;;;132.93;31.42;;;;;;;;;;5081049;28;20044;-78
2022/01/16 12:25:41;;;;;;;136.60;32.63;;;;;;;;;;5072450;28;20507;-79
2022/01/16 12:28:11;;;;;;;127.90;31.67;;;;;;;;;;5069525;28;20847;-79
2022/01/16 12:31:03;;;;;;;129.00;30.45;;;;;;;;;;5069682;28;20125;-80
2022/01/16 12:33:31;;;;;;;116.95;28.83;;;;;;;;;;5088905;28;20044;-80
2022/01/16 12:36:00;;;;;;;117.45;30.63;;;;;;;;;;5091549;28;20130;-80
2022/01/16 12:38:28;;;;;;;122.75;30.20;;;;;;;;;;5079232;28;20122;-80
2022/01/16 12:40:58;;;;;;;105.95;28.40;;;;;;;;;;5088289;28;20076;-80
2022/01/16 12:43:30;;;;;;;111.03;29.08;;;;;;;;;;5070834;28;20153;-81
2022/01/16 12:45:58;;;;;;;117.95;31.30;;;;;;;;;;5071092;28;20052;-80
2022/01/16 12:48:26;;;;;;;117.32;27.77;;;;;;;;;;5069595;28;20098;-80
2022/01/16 12:51:02;;;;;;;113.65;27.73;;;;;;;;;;5078931;28;20083;-79
2022/01/16 12:53:42;;;;;;;113.63;27.65;;;;;;;;;;5071884;28;20040;-80
2022/01/16 12:56:23;;;;;;;102.78;27.50;;;;;;;;;;5086060;28;20127;-80
2022/01/16 12:58:54;;;;;;;94.38;26.83;;;;;;;;;;5081338;28;20065;-80
2022/01/16 13:01:25;;;;;;;106.93;27.35;;;;;;;;;;5069209;28;20084;-81
2022/01/16 13:03:54;;;;;;;108.38;27.63;;;;;;;;;;5070006;28;20065;-81
2022/01/16 13:06:34;;;;;;;89.18;25.58;;;;;;;;;;5078764;28;20044;-80
2022/01/16 13:09:08;;;;;;;107.65;28.10;;;;;;;;;;5072146;28;20543;-81
2022/01/16 13:11:47;;;;;;;102.28;26.40;;;;;;;;;;5073106;28;20124;-82
2022/01/16 13:14:25;;;;;;;99.35;26.42;;;;;;;;;;5069590;28;20132;-82
2022/01/16 13:16:56;;;;;;;81.97;22.70;;;;;;;;;;5078922;28;20665;-81
2022/01/16 13:19:39;;;;;;;92.80;24.50;;;;;;;;;;5076339;28;20505;-83
2022/01/16 13:22:11;;;;;;;92.43;25.20;;;;;;;;;;5077893;28;20913;-82
2022/01/16 13:24:57;;;;;;;93.05;22.63;;;;;;;;;;5076964;28;20040;-82
2022/01/16 13:27:25;;;;;;;91.43;24.42;;;;;;;;;;5073454;28;20091;-82
2022/01/16 13:29:56;;;;;;;86.75;24.85;;;;;;;;;;5084618;28;20751;-82
2022/01/16 13:32:28;;;;;;;84.25;22.90;;;;;;;;;;5069863;28;20129;-82
2022/01/16 13:35:02;;;;;;;85.90;23.90;;;;;;;;;;5071753;28;20098;-83
2022/01/16 13:37:31;;;;;;;86.78;24.15;;;;;;;;;;5082571;28;20085;-82
2022/01/16 13:40:02;;;;;;;96.75;24.38;;;;;;;;;;5055529;28;20127;-82
2022/01/16 13:42:40;;;;;;;80.35;22.90;;;;;;;;;;5061276;28;20087;-83
2022/01/16 13:45:16;;;;;;;80.03;22.67;;;;;;;;;;5069662;28;20132;-83
2022/01/16 13:47:56;;;;;;;81.90;20.95;;;;;;;;;;5073465;28;20048;-84
2022/01/16 13:50:24;;;;;;;83.53;21.73;;;;;;;;;;5078974;28;20068;-83
2022/01/16 13:53:02;;;;;;;71.32;21.33;;;;;;;;;;5069578;28;20404;-82
2022/01/16 13:55:30;;;;;;;81.68;20.92;;;;;;;;;;5089136;28;20119;-86
2022/01/16 13:57:58;;;;;;;75.03;20.48;;;;;;;;;;5073235;28;20087;-82